createdAt,value
2019-02-27T00:00:49.857Z,2.63
2019-02-27T00:03:19.700Z,2.59
2019-02-27T00:05:48.407Z,2.63
2019-02-27T00:08:17.207Z,2.59
2019-02-27T00:10:46.157Z,2.59
2019-02-27T00:13:14.947Z,2.55
2019-02-27T00:15:43.735Z,2.53
2019-02-27T00:18:12.384Z,2.48
2019-02-27T00:20:41.132Z,2.48
2019-02-27T00:23:09.784Z,2.46
2019-02-27T00:25:38.515Z,2.43
2019-02-27T00:28:07.385Z,2.37
2019-02-27T00:30:38.154Z,2.31
2019-02-27T00:33:06.610Z,2.34
2019-02-27T00:35:38.665Z,2.36
2019-02-27T00:38:05.897Z,2.35
2019-02-27T00:40:38.536Z,2.32
2019-02-27T00:43:05.058Z,2.30
2019-02-27T00:45:33.864Z,2.26
2019-02-27T00:48:02.622Z,2.22
2019-02-27T00:50:31.359Z,2.15
2019-02-27T00:53:00.163Z,2.02
2019-02-27T00:55:28.857Z,1.95
2019-02-27T00:57:57.632Z,1.89
2019-02-27T01:00:26.443Z,1.84
2019-02-27T01:02:55.175Z,1.74
2019-02-27T01:05:23.912Z,1.75
2019-02-27T01:07:54.230Z,1.86
2019-02-27T01:10:23.279Z,1.86
2019-02-27T01:12:57.793Z,1.67
2019-02-27T01:15:23.974Z,1.67
2019-02-27T01:17:55.035Z,1.54
2019-02-27T01:20:23.218Z,1.48
2019-02-27T01:22:51.864Z,1.45
2019-02-27T01:25:22.886Z,1.45
2019-02-27T01:27:51.091Z,1.54
2019-02-27T01:30:23.885Z,1.54
2019-02-27T01:32:50.349Z,1.54
2019-02-27T01:35:19.105Z,1.54
2019-02-27T01:37:47.895Z,1.44
2019-02-27T01:40:18.059Z,1.42
2019-02-27T01:42:47.231Z,1.37
2019-02-27T01:45:20.570Z,1.40
2019-02-27T01:47:47.810Z,1.45
2019-02-27T01:50:28.428Z,1.50
2019-02-27T01:52:57.188Z,1.56
2019-02-27T01:55:25.865Z,1.57
2019-02-27T01:57:54.485Z,1.56
2019-02-27T02:00:23.979Z,1.50
2019-02-27T02:02:52.911Z,1.41
2019-02-27T02:05:26.155Z,1.38
2019-02-27T02:07:52.188Z,1.32
2019-02-27T02:10:20.900Z,1.32
2019-02-27T02:12:55.543Z,1.25
2019-02-27T02:15:36.370Z,1.22
2019-02-27T02:18:19.879Z,1.14
2019-02-27T02:20:51.573Z,0.98
2019-02-27T02:23:34.995Z,1.04
2019-02-27T02:26:23.064Z,0.99
2019-02-27T02:29:17.923Z,0.96
2019-02-27T02:32:01.293Z,1.03
2019-02-27T02:34:50.997Z,0.89
2019-02-27T02:37:25.409Z,0.84
2019-02-27T02:40:21.232Z,0.84
2019-02-27T02:43:24.622Z,0.87
2019-02-27T02:45:59.267Z,0.96
2019-02-27T02:48:56.688Z,1.03
2019-02-27T02:51:49.014Z,1.04
2019-02-27T02:54:37.945Z,0.88
2019-02-27T02:57:15.978Z,0.91
2019-02-27T03:00:00.914Z,0.87
2019-02-27T03:02:35.811Z,0.93
2019-02-27T03:05:24.262Z,0.98
2019-02-27T03:08:11.266Z,1.01
2019-02-27T03:11:02.463Z,0.94
2019-02-27T03:13:53.517Z,0.91
2019-02-27T03:16:47.536Z,0.92
2019-02-27T03:19:41.731Z,0.90
2019-02-27T03:22:24.136Z,0.88
2019-02-27T03:25:04.405Z,0.86
2019-02-27T03:28:05.030Z,0.80
2019-02-27T03:30:53.079Z,0.81
2019-02-27T03:33:27.531Z,0.80
2019-02-27T03:36:04.710Z,0.83
2019-02-27T03:38:59.114Z,0.81
2019-02-27T03:41:36.462Z,0.82
2019-02-27T03:44:20.600Z,0.72
2019-02-27T03:46:56.416Z,0.73
2019-02-27T03:49:40.983Z,0.73
2019-02-27T03:52:28.923Z,0.81
2019-02-27T03:55:09.733Z,0.70
2019-02-27T03:58:02.371Z,0.64
2019-02-27T04:00:34.176Z,0.56
2019-02-27T04:03:20.855Z,0.47
2019-02-27T04:05:55.203Z,0.54
2019-02-27T04:08:48.771Z,0.49
2019-02-27T04:11:17.561Z,0.36
2019-02-27T04:13:46.378Z,0.25
2019-02-27T04:16:15.638Z,0.25
2019-02-27T04:18:44.423Z,0.28
2019-02-27T04:21:13.309Z,0.26
2019-02-27T04:23:47.946Z,0.33
2019-02-27T04:26:12.552Z,0.30
2019-02-27T04:28:41.244Z,0.28
2019-02-27T04:31:10.032Z,0.26
2019-02-27T04:33:38.796Z,0.21
2019-02-27T04:36:12.316Z,0.22
2019-02-27T04:38:37.941Z,0.18
2019-02-27T04:41:06.749Z,0.18
2019-02-27T04:43:35.501Z,0.18
2019-02-27T04:46:05.235Z,0.18
2019-02-27T04:48:33.892Z,0.16
2019-02-27T04:51:02.588Z,0.28
2019-02-27T04:53:31.821Z,0.47
2019-02-27T04:56:01.718Z,0.50
2019-02-27T04:58:31.370Z,0.43
2019-02-27T05:01:00.652Z,0.29
2019-02-27T05:03:29.292Z,0.38
2019-02-27T05:06:02.435Z,0.35
2019-02-27T05:08:31.570Z,0.12
2019-02-27T05:11:00.116Z,0.03
2019-02-27T05:13:28.810Z,0.03
2019-02-27T05:15:58.222Z,-0.14
2019-02-27T05:18:29.314Z,-0.01
2019-02-27T05:20:57.454Z,0.03
2019-02-27T05:23:26.086Z,-0.03
2019-02-27T05:25:55.035Z,-0.05
2019-02-27T05:28:23.730Z,-0.07
2019-02-27T05:30:52.466Z,-0.08
2019-02-27T05:33:21.317Z,-0.11
2019-02-27T05:35:50.038Z,-0.13
2019-02-27T05:38:18.716Z,-0.16
2019-02-27T05:40:47.381Z,-0.14
2019-02-27T05:43:16.272Z,-0.15
2019-02-27T05:45:44.918Z,-0.14
2019-02-27T05:48:13.691Z,-0.14
2019-02-27T05:50:44.350Z,-0.13
2019-02-27T05:53:12.919Z,-0.13
2019-02-27T05:55:41.603Z,-0.15
2019-02-27T05:58:11.731Z,-0.12
2019-02-27T06:00:40.521Z,-0.11
2019-02-27T06:03:09.439Z,-0.08
2019-02-27T06:05:38.175Z,-0.11
2019-02-27T06:08:06.871Z,-0.10
2019-02-27T06:10:35.569Z,-0.10
2019-02-27T06:13:05.307Z,-0.07
2019-02-27T06:15:33.978Z,-0.16
2019-02-27T06:18:02.799Z,0.01
2019-02-27T06:20:31.596Z,-0.04
2019-02-27T06:23:04.166Z,-0.07
2019-02-27T06:25:30.926Z,-0.10
2019-02-27T06:27:59.699Z,-0.14
2019-02-27T06:30:30.623Z,-0.08
2019-02-27T06:32:58.850Z,-0.02
2019-02-27T06:35:27.489Z,-0.09
2019-02-27T06:37:56.214Z,-0.13
2019-02-27T06:40:25.010Z,-0.07
2019-02-27T06:42:54.435Z,-0.03
2019-02-27T06:45:23.600Z,-0.10
2019-02-27T06:47:52.260Z,-0.14
2019-02-27T06:50:25.163Z,-0.11
2019-02-27T06:52:51.531Z,-0.13
2019-02-27T06:55:20.470Z,-0.02
2019-02-27T06:57:49.282Z,0.06
2019-02-27T07:00:23.640Z,0.08
2019-02-27T07:02:55.194Z,0.18
2019-02-27T07:05:22.775Z,0.30
2019-02-27T07:07:51.598Z,0.38
2019-02-27T07:10:20.699Z,0.58
2019-02-27T07:12:54.421Z,0.91
2019-02-27T07:15:21.739Z,1.29
2019-02-27T07:17:50.504Z,1.99
2019-02-27T07:20:23.790Z,2.59
2019-02-27T07:22:49.621Z,2.60
2019-02-27T07:25:19.552Z,2.89
2019-02-27T07:27:48.159Z,2.94
2019-02-27T07:30:23.637Z,2.91
2019-02-27T07:32:52.150Z,3.00
2019-02-27T07:35:25.598Z,4.06
2019-02-27T07:37:51.396Z,4.87
2019-02-27T07:40:21.555Z,5.33
2019-02-27T07:42:50.334Z,5.48
2019-02-27T07:45:23.805Z,5.67
2019-02-27T07:47:52.657Z,5.99
2019-02-27T07:50:24.130Z,6.12
2019-02-27T07:52:52.858Z,6.54
2019-02-27T07:55:23.295Z,6.52
2019-02-27T07:57:51.997Z,7.14
2019-02-27T08:00:22.812Z,6.85
2019-02-27T08:02:51.554Z,7.84
2019-02-27T08:05:20.357Z,8.34
2019-02-27T08:07:49.935Z,9.04
2019-02-27T08:10:21.830Z,9.34
2019-02-27T08:12:50.616Z,9.63
2019-02-27T08:15:21.049Z,9.61
2019-02-27T08:17:49.855Z,9.75
2019-02-27T08:20:21.031Z,9.97
2019-02-27T08:22:50.201Z,10.15
2019-02-27T08:25:19.863Z,10.45
2019-02-27T08:27:48.677Z,10.20
2019-02-27T08:30:26.099Z,10.07
2019-02-27T08:32:54.953Z,10.24
2019-02-27T08:35:23.760Z,10.28
2019-02-27T08:38:01.905Z,10.38
2019-02-27T08:40:25.099Z,10.56
2019-02-27T08:42:53.443Z,11.06
2019-02-27T08:45:26.820Z,11.61
2019-02-27T08:47:52.627Z,11.72
2019-02-27T08:50:25.300Z,11.74
2019-02-27T08:52:53.921Z,11.47
2019-02-27T08:55:23.076Z,11.74
2019-02-27T08:57:56.052Z,11.64
2019-02-27T09:00:25.302Z,11.79
2019-02-27T09:02:55.634Z,11.80
2019-02-27T09:05:24.670Z,12.37
2019-02-27T09:07:53.431Z,12.58
2019-02-27T09:10:26.819Z,12.27
2019-02-27T09:13:04.392Z,13.09
2019-02-27T09:15:25.283Z,13.53
2019-02-27T09:17:53.976Z,14.12
2019-02-27T09:20:22.785Z,12.85
2019-02-27T09:22:51.720Z,12.77
2019-02-27T09:25:23.729Z,13.16
2019-02-27T09:27:50.922Z,13.30
2019-02-27T09:30:22.717Z,13.61
2019-02-27T09:32:51.402Z,13.42
2019-02-27T09:35:20.113Z,13.46
2019-02-27T09:37:51.191Z,13.90
2019-02-27T09:40:29.517Z,13.50
2019-02-27T09:42:58.014Z,14.53
2019-02-27T09:45:35.362Z,14.24
2019-02-27T09:48:05.484Z,14.92
2019-02-27T09:50:37.354Z,15.50
2019-02-27T09:53:06.095Z,16.01
2019-02-27T09:55:34.882Z,16.06
2019-02-27T09:58:03.690Z,15.64
2019-02-27T10:00:46.389Z,15.92
2019-02-27T10:03:19.844Z,16.56
2019-02-27T10:05:46.353Z,16.03
2019-02-27T10:08:15.187Z,16.12
2019-02-27T10:10:45.847Z,15.99
2019-02-27T10:13:14.446Z,16.53
2019-02-27T10:15:43.145Z,17.15
2019-02-27T10:18:11.932Z,17.18
2019-02-27T10:20:40.774Z,16.96
2019-02-27T10:23:09.648Z,16.02
2019-02-27T10:25:43.232Z,17.29
2019-02-27T10:28:10.645Z,16.75
2019-02-27T10:30:39.436Z,17.22
2019-02-27T10:33:11.207Z,16.91
2019-02-27T10:35:38.709Z,17.64
2019-02-27T10:38:07.472Z,17.64
2019-02-27T10:40:36.208Z,17.34
2019-02-27T10:43:05.113Z,17.62
2019-02-27T10:45:35.186Z,17.18
2019-02-27T10:48:04.567Z,17.55
2019-02-27T10:50:35.561Z,17.80
2019-02-27T10:53:05.377Z,17.90
2019-02-27T10:55:34.186Z,18.50
2019-02-27T10:58:02.952Z,18.56
2019-02-27T11:00:33.338Z,18.40
2019-02-27T11:03:02.559Z,18.25
2019-02-27T11:05:39.503Z,18.48
2019-02-27T11:08:08.288Z,18.43
2019-02-27T11:10:37.043Z,18.30
2019-02-27T11:13:06.988Z,18.07
2019-02-27T11:15:41.137Z,18.33
2019-02-27T11:18:06.975Z,18.50
2019-02-27T11:20:35.793Z,18.77
2019-02-27T11:23:07.036Z,19.42
2019-02-27T11:25:35.605Z,19.10
2019-02-27T11:28:05.320Z,19.51
2019-02-27T11:30:39.507Z,18.89
2019-02-27T11:33:08.290Z,19.03
2019-02-27T11:35:37.023Z,19.31
2019-02-27T11:38:06.071Z,19.37
2019-02-27T11:40:34.899Z,19.16
2019-02-27T11:43:06.558Z,19.69
2019-02-27T11:45:34.107Z,19.58
2019-02-27T11:48:02.734Z,19.57
2019-02-27T11:50:31.503Z,19.86
2019-02-27T11:53:02.813Z,20.26
2019-02-27T11:55:30.657Z,20.42
2019-02-27T11:58:04.601Z,20.48
2019-02-27T12:00:31.354Z,19.89
2019-02-27T12:03:00.155Z,20.24
2019-02-27T12:05:34.049Z,20.46
2019-02-27T12:08:01.040Z,20.64
2019-02-27T12:10:31.829Z,20.30
2019-02-27T12:13:01.317Z,20.55
2019-02-27T12:15:31.543Z,20.53
2019-02-27T12:18:01.491Z,20.58
2019-02-27T12:20:30.886Z,20.32
2019-02-27T12:22:59.543Z,20.58
2019-02-27T12:25:30.102Z,21.01
2019-02-27T12:27:58.682Z,20.60
2019-02-27T12:30:31.715Z,20.84
2019-02-27T12:33:00.415Z,20.64
2019-02-27T12:35:33.956Z,21.07
2019-02-27T12:38:07.128Z,20.97
2019-02-27T12:40:33.539Z,20.77
2019-02-27T12:43:02.179Z,20.80
2019-02-27T12:45:31.723Z,20.59
2019-02-27T12:48:00.690Z,20.69
2019-02-27T12:50:31.513Z,20.44
2019-02-27T12:53:00.580Z,20.71
2019-02-27T12:55:29.511Z,20.69
2019-02-27T12:57:58.266Z,20.49
2019-02-27T13:00:30.269Z,20.43
2019-02-27T13:02:59.408Z,20.45
2019-02-27T13:05:29.180Z,20.66
2019-02-27T13:07:57.836Z,20.80
2019-02-27T13:10:32.843Z,20.87
2019-02-27T13:12:58.738Z,21.01
2019-02-27T13:15:31.999Z,21.02
2019-02-27T13:18:00.747Z,20.77
2019-02-27T13:20:36.913Z,20.78
2019-02-27T13:23:05.682Z,20.69
2019-02-27T13:25:34.353Z,20.97
2019-02-27T13:28:03.061Z,20.51
2019-02-27T13:30:31.874Z,20.76
2019-02-27T13:33:02.024Z,20.97
2019-02-27T13:35:31.232Z,21.22
2019-02-27T13:37:59.919Z,21.38
2019-02-27T13:40:35.223Z,21.51
2019-02-27T13:43:01.273Z,20.97
2019-02-27T13:45:32.319Z,21.19
2019-02-27T13:48:04.990Z,21.50
2019-02-27T13:50:31.518Z,21.51
2019-02-27T13:53:00.252Z,21.34
2019-02-27T13:55:28.984Z,21.31
2019-02-27T13:57:59.181Z,21.22
2019-02-27T14:00:33.610Z,21.19
2019-02-27T14:03:02.342Z,21.02
2019-02-27T14:05:35.204Z,20.98
2019-02-27T14:08:04.558Z,20.72
2019-02-27T14:10:34.634Z,20.51
2019-02-27T14:13:03.360Z,20.59
2019-02-27T14:15:33.623Z,20.76
2019-02-27T14:18:02.855Z,20.52
2019-02-27T14:20:31.642Z,19.92
2019-02-27T14:23:00.279Z,20.15
2019-02-27T14:25:34.127Z,19.77
2019-02-27T14:28:02.871Z,20.17
2019-02-27T14:30:40.307Z,20.33
2019-02-27T14:33:10.947Z,20.83
2019-02-27T14:35:39.442Z,21.11
2019-02-27T14:38:08.167Z,21.47
2019-02-27T14:40:40.062Z,21.56
2019-02-27T14:43:07.518Z,21.29
2019-02-27T14:45:39.491Z,20.99
2019-02-27T14:48:06.683Z,20.65
2019-02-27T14:50:35.518Z,21.06
2019-02-27T14:53:04.365Z,21.37
2019-02-27T14:55:36.251Z,21.41
2019-02-27T14:58:03.741Z,21.22
2019-02-27T15:00:39.586Z,21.45
2019-02-27T15:03:06.091Z,21.29
2019-02-27T15:05:36.813Z,21.20
2019-02-27T15:08:05.825Z,20.96
2019-02-27T15:10:34.565Z,21.17
2019-02-27T15:13:03.534Z,20.88
2019-02-27T15:15:33.461Z,20.65
2019-02-27T15:18:02.297Z,20.84
2019-02-27T15:20:31.725Z,20.68
2019-02-27T15:23:00.545Z,20.73
2019-02-27T15:25:29.284Z,20.90
2019-02-27T15:27:59.937Z,20.87
2019-02-27T15:30:34.035Z,20.69
2019-02-27T15:33:04.895Z,20.49
2019-02-27T15:35:33.216Z,20.44
2019-02-27T15:38:01.952Z,20.46
2019-02-27T15:40:31.859Z,20.30
2019-02-27T15:43:00.643Z,20.17
2019-02-27T15:45:29.905Z,20.03
2019-02-27T15:47:58.584Z,19.96
2019-02-27T15:50:46.430Z,19.80
2019-02-27T15:53:15.909Z,19.77
2019-02-27T15:55:45.673Z,19.63
2019-02-27T15:58:14.377Z,19.60
2019-02-27T16:00:43.158Z,19.58
2019-02-27T16:03:12.160Z,19.47
2019-02-27T16:05:42.316Z,19.49
2019-02-27T16:08:36.276Z,19.45
2019-02-27T16:11:05.433Z,19.46
2019-02-27T16:13:34.702Z,19.33
2019-02-27T16:16:04.968Z,19.27
2019-02-27T16:18:33.901Z,19.12
2019-02-27T16:21:05.283Z,18.99
2019-02-27T16:23:37.190Z,18.92
2019-02-27T16:26:05.306Z,18.91
2019-02-27T16:28:34.034Z,18.69
2019-02-27T16:31:05.799Z,18.61
2019-02-27T16:33:33.251Z,18.45
2019-02-27T16:36:01.947Z,18.33
2019-02-27T16:38:31.652Z,18.21
2019-02-27T16:41:01.206Z,18.09
2019-02-27T16:43:29.936Z,17.96
2019-02-27T16:45:59.353Z,17.67
2019-02-27T16:48:31.066Z,17.52
2019-02-27T16:51:00.597Z,17.38
2019-02-27T16:53:29.966Z,17.10
2019-02-27T16:55:58.730Z,16.91
2019-02-27T16:58:32.798Z,16.68
2019-02-27T17:00:57.972Z,16.46
2019-02-27T17:03:26.643Z,16.24
2019-02-27T17:05:55.341Z,16.08
2019-02-27T17:08:24.059Z,15.81
2019-02-27T17:10:52.867Z,15.74
2019-02-27T17:13:21.568Z,15.45
2019-02-27T17:15:50.305Z,15.27
2019-02-27T17:18:19.176Z,15.12
2019-02-27T17:20:47.893Z,15.06
2019-02-27T17:23:16.673Z,14.97
2019-02-27T17:25:45.382Z,14.84
2019-02-27T17:28:14.104Z,14.94
2019-02-27T17:30:42.829Z,14.86
2019-02-27T17:33:11.787Z,14.83
2019-02-27T17:35:40.573Z,14.78
2019-02-27T17:38:10.886Z,14.75
2019-02-27T17:40:40.320Z,14.68
2019-02-27T17:43:09.404Z,14.52
2019-02-27T17:45:38.218Z,14.54
2019-02-27T17:48:09.273Z,14.46
2019-02-27T17:50:39.276Z,14.26
2019-02-27T17:53:08.469Z,14.09
2019-02-27T17:55:41.594Z,14.01
2019-02-27T17:58:09.212Z,13.81
2019-02-27T18:00:39.646Z,13.58
2019-02-27T18:03:10.120Z,13.44
2019-02-27T18:05:40.921Z,13.34
2019-02-27T18:08:09.871Z,13.40
2019-02-27T18:10:39.445Z,13.48
2019-02-27T18:13:09.851Z,13.38
2019-02-27T18:15:38.594Z,13.41
2019-02-27T18:18:10.411Z,13.34
2019-02-27T18:20:37.730Z,13.31
2019-02-27T18:23:06.495Z,13.18
2019-02-27T18:25:35.405Z,13.14
2019-02-27T18:28:04.947Z,13.12
2019-02-27T18:30:33.626Z,13.14
2019-02-27T18:33:02.423Z,13.15
2019-02-27T18:35:31.196Z,13.18
2019-02-27T18:37:59.851Z,13.12
2019-02-27T18:40:29.055Z,13.08
2019-02-27T18:42:57.727Z,12.98
2019-02-27T18:45:28.388Z,13.00
2019-02-27T18:47:58.719Z,12.92
2019-02-27T18:50:28.177Z,12.80
2019-02-27T18:52:57.088Z,12.78
2019-02-27T18:55:29.621Z,12.77
2019-02-27T18:57:57.283Z,12.67
2019-02-27T19:00:33.345Z,12.63
2019-02-27T19:03:06.747Z,12.53
2019-02-27T19:05:38.163Z,12.46
2019-02-27T19:08:06.765Z,12.42
2019-02-27T19:10:41.308Z,12.37
2019-02-27T19:13:06.031Z,12.27
2019-02-27T19:15:46.320Z,12.19
2019-02-27T19:18:15.455Z,12.18
2019-02-27T19:20:49.786Z,12.09
2019-02-27T19:23:18.688Z,12.05
2019-02-27T19:25:48.597Z,12.01
2019-02-27T19:28:18.937Z,12.02
2019-02-27T19:30:47.792Z,11.92
2019-02-27T19:33:16.838Z,11.79
2019-02-27T19:35:45.774Z,11.56
2019-02-27T19:38:14.411Z,11.46
2019-02-27T19:40:43.185Z,11.48
2019-02-27T19:43:12.101Z,11.50
2019-02-27T19:45:42.304Z,11.54
2019-02-27T19:48:11.398Z,11.61
2019-02-27T19:50:44.856Z,11.63
2019-02-27T19:53:10.543Z,11.57
2019-02-27T19:55:39.328Z,11.58
2019-02-27T19:58:08.054Z,11.40
2019-02-27T20:00:38.050Z,11.43
2019-02-27T20:03:07.497Z,11.46
2019-02-27T20:05:36.493Z,11.48
2019-02-27T20:08:09.911Z,11.51
2019-02-27T20:10:35.739Z,11.48
2019-02-27T20:13:06.907Z,11.53
2019-02-27T20:15:35.798Z,11.51
2019-02-27T20:18:08.275Z,11.54
2019-02-27T20:20:40.919Z,11.38
2019-02-27T20:23:07.258Z,11.60
2019-02-27T20:25:36.083Z,11.67
2019-02-27T20:28:04.946Z,11.63
2019-02-27T20:30:33.875Z,11.62
2019-02-27T20:33:04.980Z,11.71
2019-02-27T20:35:34.576Z,11.75
2019-02-27T20:38:03.418Z,11.83
2019-02-27T20:40:34.365Z,11.77
2019-02-27T20:43:02.660Z,11.76
2019-02-27T20:45:31.767Z,11.74
2019-02-27T20:48:01.973Z,11.72
2019-02-27T20:50:37.979Z,11.65
2019-02-27T20:53:09.578Z,11.71
2019-02-27T20:55:38.367Z,11.68
2019-02-27T20:58:07.869Z,11.53
2019-02-27T21:00:37.309Z,11.44
2019-02-27T21:03:06.588Z,11.44
2019-02-27T21:05:41.032Z,11.36
2019-02-27T21:08:12.020Z,11.29
2019-02-27T21:10:42.689Z,11.22
2019-02-27T21:13:16.041Z,11.14
2019-02-27T21:15:43.616Z,11.12
2019-02-27T21:18:14.062Z,11.05
2019-02-27T21:20:45.220Z,11.04
2019-02-27T21:23:15.291Z,10.96
2019-02-27T21:25:48.643Z,10.93
2019-02-27T21:28:20.947Z,10.87
2019-02-27T21:30:45.734Z,10.79
2019-02-27T21:33:16.632Z,10.72
2019-02-27T21:35:45.343Z,10.61
2019-02-27T21:38:16.632Z,10.48
2019-02-27T21:40:45.078Z,10.37
2019-02-27T21:43:13.886Z,10.27
2019-02-27T21:45:42.819Z,10.33
2019-02-27T21:48:11.844Z,10.29
2019-02-27T21:50:40.739Z,10.23
2019-02-27T21:53:09.585Z,10.20
2019-02-27T21:55:38.224Z,10.28
2019-02-27T21:58:06.985Z,10.23
2019-02-27T22:00:35.738Z,10.11
2019-02-27T22:03:05.478Z,10.11
2019-02-27T22:05:42.535Z,9.86
2019-02-27T22:08:06.108Z,9.95
2019-02-27T22:10:35.647Z,10.03
2019-02-27T22:13:09.544Z,9.97
2019-02-27T22:15:37.547Z,9.99
2019-02-27T22:18:08.361Z,10.15
2019-02-27T22:20:36.678Z,10.16
2019-02-27T22:23:05.465Z,10.07
2019-02-27T22:25:34.230Z,10.05
2019-02-27T22:28:02.851Z,10.02
2019-02-27T22:30:31.983Z,10.06
2019-02-27T22:33:02.101Z,10.00
2019-02-27T22:35:30.860Z,9.87
2019-02-27T22:37:59.494Z,9.85
2019-02-27T22:40:28.272Z,9.85
2019-02-27T22:42:57.027Z,9.78
2019-02-27T22:45:25.813Z,9.74
2019-02-27T22:47:54.757Z,9.67
2019-02-27T22:50:23.462Z,9.55
2019-02-27T22:52:54.574Z,9.54
2019-02-27T22:55:22.666Z,9.48
2019-02-27T22:57:51.280Z,9.42
2019-02-27T23:00:56.676Z,9.33
2019-02-27T23:03:31.928Z,9.35
2019-02-27T23:06:00.715Z,9.37
2019-02-27T23:08:29.388Z,9.30
2019-02-27T23:10:58.193Z,9.20
2019-02-27T23:13:26.989Z,9.14
2019-02-27T23:15:59.002Z,9.17
2019-02-27T23:18:26.323Z,9.20
2019-02-27T23:20:56.157Z,9.10
2019-02-27T23:23:26.110Z,9.21
2019-02-27T23:25:55.984Z,9.11
2019-02-27T23:28:24.718Z,9.08
2019-02-27T23:30:53.400Z,8.98
2019-02-27T23:33:24.575Z,8.96
2019-02-27T23:35:52.798Z,8.94
2019-02-27T23:38:22.294Z,8.88
2019-02-27T23:40:50.970Z,8.85
2019-02-27T23:43:19.856Z,8.82
2019-02-27T23:45:49.357Z,8.74
2019-02-27T23:48:18.856Z,8.72
2019-02-27T23:50:47.600Z,8.59
2019-02-27T23:53:16.347Z,8.61
2019-02-27T23:55:45.511Z,8.49
2019-02-27T23:58:14.346Z,8.43
